createdAt,value
2017-12-15T00:01:12.033Z,4.73
2017-12-15T00:03:39.285Z,5.30
2017-12-15T00:06:06.536Z,5.00
2017-12-15T00:08:33.805Z,6.20
2017-12-15T00:11:01.061Z,4.93
2017-12-15T00:13:28.331Z,3.70
2017-12-15T00:15:55.573Z,6.57
2017-12-15T00:18:22.845Z,5.37
2017-12-15T00:20:50.097Z,4.10
2017-12-15T00:23:17.361Z,4.40
2017-12-15T00:25:44.613Z,4.07
2017-12-15T00:28:11.891Z,3.63
2017-12-15T00:30:39.132Z,3.50
2017-12-15T00:33:06.402Z,4.00
2017-12-15T00:35:33.665Z,4.03
2017-12-15T00:38:00.917Z,3.20
2017-12-15T00:40:28.181Z,3.77
2017-12-15T00:42:55.443Z,3.20
2017-12-15T00:45:22.773Z,2.83
2017-12-15T00:47:50.017Z,2.87
2017-12-15T00:50:17.280Z,2.20
2017-12-15T00:52:44.524Z,2.40
2017-12-15T00:55:11.788Z,2.57
2017-12-15T00:57:39.037Z,1.90
2017-12-15T01:00:06.308Z,3.07
2017-12-15T01:02:33.553Z,2.00
2017-12-15T01:05:00.820Z,1.70
2017-12-15T01:07:28.069Z,1.83
2017-12-15T01:09:55.332Z,2.33
2017-12-15T01:12:22.657Z,1.73
2017-12-15T01:14:49.932Z,2.13
2017-12-15T01:17:17.182Z,2.67
2017-12-15T01:19:44.436Z,2.17
2017-12-15T01:22:11.772Z,1.23
2017-12-15T01:24:39.023Z,1.40
2017-12-15T01:27:06.284Z,1.53
2017-12-15T01:29:33.532Z,1.20
2017-12-15T01:32:00.803Z,2.43
2017-12-15T01:34:28.141Z,1.30
2017-12-15T01:36:55.411Z,1.20
2017-12-15T01:39:22.662Z,1.50
2017-12-15T01:41:49.937Z,1.13
2017-12-15T01:44:17.181Z,0.90
2017-12-15T01:46:44.449Z,1.33
2017-12-15T01:49:11.704Z,1.70
2017-12-15T01:51:39.017Z,2.40
2017-12-15T01:54:06.268Z,1.57
2017-12-15T01:56:33.530Z,1.30
2017-12-15T01:59:00.778Z,1.10
2017-12-15T02:01:28.040Z,1.53
2017-12-15T02:03:55.293Z,1.40
2017-12-15T02:06:22.565Z,1.10
2017-12-15T02:08:49.808Z,1.20
2017-12-15T02:11:17.152Z,1.00
2017-12-15T02:13:44.423Z,0.60
2017-12-15T02:16:11.663Z,2.57
2017-12-15T02:18:39.008Z,1.20
2017-12-15T02:21:06.264Z,1.57
2017-12-15T02:23:34.473Z,0.80
2017-12-15T02:26:01.793Z,0.80
2017-12-15T02:28:29.061Z,1.67
2017-12-15T02:30:56.307Z,1.07
2017-12-15T02:33:23.576Z,1.00
2017-12-15T02:35:50.829Z,1.07
2017-12-15T02:38:18.095Z,0.50
2017-12-15T02:40:45.341Z,0.70
2017-12-15T02:43:12.608Z,1.57
2017-12-15T02:45:39.865Z,1.37
2017-12-15T02:48:07.136Z,0.70
2017-12-15T02:50:34.373Z,1.77
2017-12-15T02:53:01.629Z,1.10
2017-12-15T02:55:28.898Z,1.90
2017-12-15T02:57:56.191Z,0.90
2017-12-15T03:00:23.447Z,3.30
2017-12-15T03:02:50.701Z,0.80
2017-12-15T03:05:17.970Z,1.10
2017-12-15T03:07:45.217Z,2.50
2017-12-15T03:10:12.481Z,0.80
2017-12-15T03:12:39.817Z,1.90
2017-12-15T03:15:07.081Z,6.40
2017-12-15T03:17:34.329Z,1.20
2017-12-15T03:20:01.674Z,0.97
2017-12-15T03:22:28.925Z,2.17
2017-12-15T03:24:56.195Z,1.60
2017-12-15T03:27:23.446Z,1.00
2017-12-15T03:29:50.708Z,1.30
2017-12-15T03:32:17.949Z,0.90
2017-12-15T03:34:45.296Z,1.20
2017-12-15T03:37:12.560Z,2.90
2017-12-15T03:39:39.814Z,1.60
2017-12-15T03:42:07.084Z,1.87
2017-12-15T03:44:34.328Z,1.40
2017-12-15T03:47:01.602Z,1.40
2017-12-15T03:49:28.850Z,2.70
2017-12-15T03:51:56.180Z,3.20
2017-12-15T03:54:23.536Z,1.67
2017-12-15T03:56:50.795Z,1.87
2017-12-15T03:59:18.047Z,2.00
2017-12-15T04:01:45.303Z,2.73
2017-12-15T04:04:12.549Z,2.87
2017-12-15T04:06:39.809Z,3.80
2017-12-15T04:09:07.057Z,1.80
2017-12-15T04:11:34.400Z,1.87
2017-12-15T04:14:01.758Z,4.50
2017-12-15T04:16:29.011Z,2.10
2017-12-15T04:18:56.282Z,4.60
2017-12-15T04:21:23.532Z,2.50
2017-12-15T04:23:50.800Z,3.57
2017-12-15T04:26:18.041Z,1.70
2017-12-15T04:28:45.385Z,3.20
2017-12-15T04:31:12.732Z,6.30
2017-12-15T04:33:39.997Z,2.10
2017-12-15T04:36:07.240Z,2.63
2017-12-15T04:38:34.509Z,6.03
2017-12-15T04:41:01.757Z,2.20
2017-12-15T04:43:29.028Z,3.83
2017-12-15T04:45:56.285Z,3.47
2017-12-15T04:48:23.537Z,2.30
2017-12-15T04:50:50.864Z,3.10
2017-12-15T04:53:18.119Z,2.23
2017-12-15T04:55:45.376Z,2.73
2017-12-15T04:58:12.629Z,2.30
2017-12-15T05:00:39.979Z,2.10
2017-12-15T05:03:07.236Z,4.70
2017-12-15T05:05:34.497Z,5.77
2017-12-15T05:08:01.841Z,2.90
2017-12-15T05:10:29.104Z,3.47
2017-12-15T05:12:56.360Z,2.13
2017-12-15T05:15:23.625Z,4.30
2017-12-15T05:17:50.880Z,4.00
2017-12-15T05:20:18.164Z,1.17
2017-12-15T05:22:45.400Z,2.67
2017-12-15T05:25:12.649Z,2.17
2017-12-15T05:27:39.977Z,7.33
2017-12-15T05:30:07.236Z,2.43
2017-12-15T05:32:34.496Z,4.30
2017-12-15T05:35:01.750Z,5.67
2017-12-15T05:37:29.012Z,2.70
2017-12-15T05:39:56.273Z,2.50
2017-12-15T05:42:23.536Z,2.27
2017-12-15T05:44:50.792Z,2.67
2017-12-15T05:47:18.049Z,1.30
2017-12-15T05:49:45.356Z,2.13
2017-12-15T05:52:12.628Z,1.53
2017-12-15T05:54:39.871Z,2.00
2017-12-15T05:57:07.139Z,4.97
2017-12-15T05:59:34.384Z,9.40
2017-12-15T06:02:01.649Z,2.40
2017-12-15T06:04:28.895Z,4.10
2017-12-15T06:06:56.162Z,2.53
2017-12-15T06:09:23.417Z,4.83
2017-12-15T06:11:50.683Z,3.83
2017-12-15T06:14:17.940Z,2.93
2017-12-15T06:16:45.217Z,2.43
2017-12-15T06:19:12.471Z,3.73
2017-12-15T06:21:39.724Z,2.90
2017-12-15T06:24:06.988Z,1.60
2017-12-15T06:26:34.232Z,3.53
2017-12-15T06:29:01.518Z,1.57
2017-12-15T06:31:28.769Z,1.40
2017-12-15T06:33:56.034Z,3.73
2017-12-15T06:36:23.305Z,1.43
2017-12-15T06:38:50.576Z,2.53
2017-12-15T06:41:17.885Z,3.00
2017-12-15T06:43:45.160Z,3.13
2017-12-15T06:46:12.417Z,4.47
2017-12-15T06:48:39.741Z,1.87
2017-12-15T06:51:06.995Z,3.13
2017-12-15T06:53:34.265Z,2.50
2017-12-15T06:56:01.512Z,4.60
2017-12-15T06:58:28.869Z,3.10
2017-12-15T07:00:56.108Z,2.23
2017-12-15T07:03:23.372Z,4.83
2017-12-15T07:05:50.625Z,2.90
2017-12-15T07:08:17.889Z,5.40
2017-12-15T07:10:45.230Z,2.83
2017-12-15T07:13:12.501Z,3.90
2017-12-15T07:15:39.748Z,8.40
2017-12-15T07:18:06.993Z,3.63
2017-12-15T07:20:34.257Z,4.67
2017-12-15T07:23:01.560Z,3.53
2017-12-15T07:25:30.394Z,5.60
2017-12-15T07:27:57.769Z,4.30
2017-12-15T07:30:25.193Z,4.47
2017-12-15T07:32:52.469Z,7.40
2017-12-15T07:35:19.737Z,6.40
2017-12-15T07:37:47.056Z,4.57
2017-12-15T07:40:14.423Z,5.43
2017-12-15T07:42:41.667Z,12.33
2017-12-15T07:45:08.936Z,7.50
2017-12-15T07:47:36.188Z,8.10
2017-12-15T07:50:03.536Z,4.37
2017-12-15T07:52:30.781Z,5.47
2017-12-15T07:54:58.033Z,6.33
2017-12-15T07:57:25.295Z,6.10
2017-12-15T07:59:52.540Z,8.97
2017-12-15T08:02:19.809Z,7.57
2017-12-15T08:04:47.052Z,8.37
2017-12-15T08:07:14.409Z,8.33
2017-12-15T08:09:41.661Z,6.00
2017-12-15T08:12:08.925Z,8.00
2017-12-15T08:14:36.180Z,9.80
2017-12-15T08:17:03.449Z,6.50
2017-12-15T08:19:30.700Z,8.60
2017-12-15T08:21:57.972Z,11.00
2017-12-15T08:24:25.289Z,10.87
2017-12-15T08:26:52.536Z,7.07
2017-12-15T08:29:19.810Z,8.90
2017-12-15T08:31:47.063Z,10.00
2017-12-15T08:34:14.325Z,6.57
2017-12-15T08:36:41.582Z,7.60
2017-12-15T08:39:08.992Z,8.77
2017-12-15T08:41:36.276Z,11.30
2017-12-15T08:44:03.577Z,10.50
2017-12-15T08:46:30.852Z,7.07
2017-12-15T08:48:58.120Z,8.23
2017-12-15T08:51:25.370Z,8.67
2017-12-15T08:53:52.633Z,9.23
2017-12-15T08:56:19.884Z,12.50
2017-12-15T08:58:47.244Z,14.87
2017-12-15T09:01:14.502Z,8.00
2017-12-15T09:03:41.778Z,7.47
2017-12-15T09:06:09.016Z,13.93
2017-12-15T09:08:36.423Z,7.30
2017-12-15T09:11:03.653Z,5.87
2017-12-15T09:13:30.916Z,6.07
2017-12-15T09:15:58.177Z,6.43
2017-12-15T09:18:25.449Z,4.43
2017-12-15T09:20:52.696Z,6.33
2017-12-15T09:23:19.961Z,16.43
2017-12-15T09:25:47.332Z,9.83
2017-12-15T09:28:14.582Z,8.07
2017-12-15T09:30:41.849Z,8.67
2017-12-15T09:33:09.101Z,8.33
2017-12-15T09:35:36.365Z,5.60
2017-12-15T09:38:03.612Z,7.17
2017-12-15T09:40:30.876Z,4.67
2017-12-15T09:42:58.125Z,2.63
2017-12-15T09:45:25.479Z,4.07
2017-12-15T09:47:52.818Z,3.00
2017-12-15T09:50:20.082Z,3.40
2017-12-15T09:52:47.345Z,7.77
2017-12-15T09:55:14.612Z,8.03
2017-12-15T09:57:41.932Z,6.20
2017-12-15T10:00:09.296Z,14.27
2017-12-15T10:02:36.559Z,7.80
2017-12-15T10:05:03.817Z,4.80
2017-12-15T10:07:31.065Z,1.30
2017-12-15T10:09:58.325Z,4.03
2017-12-15T10:12:25.595Z,4.00
2017-12-15T10:14:52.841Z,2.20
2017-12-15T10:17:20.120Z,2.40
2017-12-15T10:19:47.424Z,2.73
2017-12-15T10:22:14.689Z,2.10
2017-12-15T10:24:41.937Z,1.00
2017-12-15T10:27:09.213Z,2.70
2017-12-15T10:29:36.464Z,5.27
2017-12-15T10:32:03.718Z,16.27
2017-12-15T10:34:30.984Z,4.53
2017-12-15T10:36:58.268Z,3.00
2017-12-15T10:39:25.542Z,6.77
2017-12-15T10:41:52.793Z,2.80
2017-12-15T10:44:20.057Z,5.07
2017-12-15T10:46:47.309Z,2.20
2017-12-15T10:49:14.665Z,1.37
2017-12-15T10:51:41.917Z,0.70
2017-12-15T10:54:09.173Z,3.73
2017-12-15T10:56:36.448Z,0.60
2017-12-15T10:59:03.781Z,0.60
2017-12-15T11:01:31.053Z,0.70
2017-12-15T11:03:58.297Z,0.80
2017-12-15T11:06:25.574Z,0.67
2017-12-15T11:08:52.821Z,0.60
2017-12-15T11:11:20.150Z,0.70
2017-12-15T11:13:47.400Z,0.67
2017-12-15T11:16:14.668Z,0.87
2017-12-15T11:18:41.922Z,0.80
2017-12-15T11:21:09.236Z,1.27
2017-12-15T11:23:36.474Z,1.00
2017-12-15T11:26:03.812Z,1.50
2017-12-15T11:28:31.077Z,1.30
2017-12-15T11:30:58.342Z,1.63
2017-12-15T11:33:25.634Z,2.37
2017-12-15T11:35:52.884Z,1.77
2017-12-15T11:38:20.148Z,2.47
2017-12-15T11:40:47.403Z,1.90
2017-12-15T11:43:14.663Z,1.60
2017-12-15T11:45:41.909Z,1.90
2017-12-15T11:48:09.175Z,2.30
2017-12-15T11:50:36.518Z,2.30
2017-12-15T11:53:03.781Z,1.73
2017-12-15T11:55:31.032Z,2.40
2017-12-15T11:57:58.302Z,2.13
2017-12-15T12:00:25.544Z,2.13
2017-12-15T12:02:52.801Z,2.23
2017-12-15T12:05:20.068Z,1.63
2017-12-15T12:07:47.326Z,3.13
2017-12-15T12:10:14.595Z,3.80
2017-12-15T12:12:41.845Z,2.10
2017-12-15T12:15:09.108Z,2.00
2017-12-15T12:17:36.397Z,2.93
2017-12-15T12:20:03.668Z,1.37
2017-12-15T12:22:30.920Z,1.97
2017-12-15T12:24:58.201Z,3.07
2017-12-15T12:27:25.450Z,2.60
2017-12-15T12:29:52.814Z,1.73
2017-12-15T12:32:20.097Z,2.20
2017-12-15T12:34:47.589Z,2.60
2017-12-15T12:37:14.816Z,2.00
2017-12-15T12:39:42.070Z,2.43
2017-12-15T12:42:09.343Z,1.93
2017-12-15T12:44:36.588Z,3.00
2017-12-15T12:47:03.858Z,1.43
2017-12-15T12:49:31.104Z,1.60
2017-12-15T12:51:58.372Z,1.37
2017-12-15T12:54:25.629Z,1.97
2017-12-15T12:56:52.897Z,1.53
2017-12-15T12:59:20.153Z,1.40
2017-12-15T13:01:47.421Z,1.93
2017-12-15T13:04:14.673Z,2.10
2017-12-15T13:06:41.943Z,2.50
2017-12-15T13:09:09.189Z,1.87
2017-12-15T13:11:36.463Z,1.90
2017-12-15T13:14:03.720Z,1.63
2017-12-15T13:16:30.967Z,1.73
2017-12-15T13:18:58.238Z,1.70
2017-12-15T13:21:25.476Z,2.23
2017-12-15T13:23:52.740Z,2.10
2017-12-15T13:26:19.988Z,3.80
2017-12-15T13:28:47.256Z,2.10
2017-12-15T13:31:15.433Z,2.07
2017-12-15T13:33:42.693Z,1.90
2017-12-15T13:36:09.963Z,5.73
2017-12-15T13:38:37.226Z,2.17
2017-12-15T13:41:04.477Z,2.60
2017-12-15T13:43:31.739Z,1.60
2017-12-15T13:45:58.993Z,3.03
2017-12-15T13:48:26.241Z,4.90
2017-12-15T13:50:53.514Z,2.60
2017-12-15T13:53:20.758Z,1.30
2017-12-15T13:55:48.024Z,2.10
2017-12-15T13:58:15.269Z,1.23
2017-12-15T14:00:42.587Z,1.20
2017-12-15T14:03:09.839Z,1.30
2017-12-15T14:05:37.103Z,1.60
2017-12-15T14:08:04.361Z,1.10
2017-12-15T14:10:31.629Z,1.83
2017-12-15T14:12:58.940Z,1.30
2017-12-15T14:15:26.193Z,1.70
2017-12-15T14:17:53.454Z,1.43
2017-12-15T14:20:20.715Z,2.37
2017-12-15T14:22:47.976Z,1.87
2017-12-15T14:25:15.221Z,1.73
2017-12-15T14:27:42.489Z,1.90
2017-12-15T14:30:09.743Z,2.03
2017-12-15T14:32:37.111Z,2.30
2017-12-15T14:35:04.376Z,2.60
2017-12-15T14:37:31.648Z,3.73
2017-12-15T14:39:58.892Z,2.10
2017-12-15T14:42:26.161Z,4.43
2017-12-15T14:44:53.447Z,2.20
2017-12-15T14:47:20.710Z,2.40
2017-12-15T14:49:47.960Z,2.40
2017-12-15T14:52:16.569Z,2.60
2017-12-15T14:54:43.825Z,4.40
2017-12-15T14:57:11.078Z,2.70
2017-12-15T14:59:38.341Z,2.60
2017-12-15T15:02:05.596Z,3.23
2017-12-15T15:04:32.861Z,3.10
2017-12-15T15:07:00.372Z,2.97
2017-12-15T15:09:27.633Z,3.07
2017-12-15T15:11:54.887Z,2.70
2017-12-15T15:14:22.174Z,3.73
2017-12-15T15:16:49.420Z,8.23
2017-12-15T15:19:16.694Z,2.67
2017-12-15T15:21:43.993Z,2.60
2017-12-15T15:24:11.261Z,2.83
2017-12-15T15:26:38.596Z,2.97
2017-12-15T15:29:05.909Z,2.70
2017-12-15T15:31:33.166Z,3.07
2017-12-15T15:34:00.465Z,2.80
2017-12-15T15:36:27.727Z,3.00
2017-12-15T15:38:54.972Z,2.80
2017-12-15T15:41:22.238Z,3.23
2017-12-15T15:43:49.490Z,3.00
2017-12-15T15:46:16.829Z,2.83
2017-12-15T15:48:44.077Z,3.57
2017-12-15T15:51:11.432Z,3.10
2017-12-15T15:53:38.689Z,3.70
2017-12-15T15:56:05.964Z,5.97
2017-12-15T15:58:33.204Z,5.80
2017-12-15T16:01:00.549Z,3.87
2017-12-15T16:03:27.957Z,9.67
2017-12-15T16:05:55.185Z,5.70
2017-12-15T16:08:22.439Z,3.43
2017-12-15T16:10:49.707Z,4.30
2017-12-15T16:13:16.952Z,4.30
2017-12-15T16:15:44.224Z,3.80
2017-12-15T16:18:11.484Z,9.43
2017-12-15T16:20:38.729Z,3.70
2017-12-15T16:23:06.052Z,5.43
2017-12-15T16:25:33.304Z,5.40
2017-12-15T16:28:00.575Z,3.30
2017-12-15T16:30:27.816Z,6.07
2017-12-15T16:32:55.191Z,3.90
2017-12-15T16:35:22.340Z,3.40
2017-12-15T16:37:49.654Z,2.60
2017-12-15T16:40:16.916Z,3.70
2017-12-15T16:42:44.262Z,4.33
2017-12-15T16:45:11.508Z,5.10
2017-12-15T16:47:38.776Z,5.30
2017-12-15T16:50:06.129Z,6.77
2017-12-15T16:52:33.393Z,5.93
2017-12-15T16:55:00.641Z,4.10
2017-12-15T16:57:27.900Z,5.17
2017-12-15T16:59:55.148Z,2.63
2017-12-15T17:02:22.504Z,3.60
2017-12-15T17:04:49.749Z,3.70
2017-12-15T17:07:17.045Z,3.50
2017-12-15T17:09:44.297Z,2.43
2017-12-15T17:12:11.552Z,2.80
2017-12-15T17:14:38.815Z,3.03
2017-12-15T17:17:06.061Z,5.70
2017-12-15T17:19:33.326Z,2.53
2017-12-15T17:22:00.582Z,4.33
2017-12-15T17:24:27.844Z,3.60
2017-12-15T17:26:55.093Z,2.93
2017-12-15T17:29:22.359Z,5.43
2017-12-15T17:31:49.615Z,5.10
2017-12-15T17:34:16.877Z,2.60
2017-12-15T17:36:44.129Z,3.47
2017-12-15T17:39:11.397Z,4.20
2017-12-15T17:41:38.644Z,3.83
2017-12-15T17:44:05.917Z,7.20
2017-12-15T17:46:33.167Z,4.80
2017-12-15T17:49:00.442Z,2.60
2017-12-15T17:51:27.685Z,4.10
2017-12-15T17:53:55.024Z,5.77
2017-12-15T17:56:22.284Z,2.73
2017-12-15T17:58:49.545Z,3.70
2017-12-15T18:01:16.887Z,6.07
2017-12-15T18:03:44.172Z,3.33
2017-12-15T18:06:11.404Z,3.17
2017-12-15T18:08:38.740Z,6.10
2017-12-15T18:11:06.008Z,5.60
2017-12-15T18:13:33.260Z,3.30
2017-12-15T18:16:00.536Z,3.93
2017-12-15T18:18:27.782Z,3.17
2017-12-15T18:20:55.066Z,4.10
2017-12-15T18:23:22.480Z,3.87
2017-12-15T18:25:49.831Z,4.30
2017-12-15T18:28:17.081Z,5.30
2017-12-15T18:30:44.349Z,9.07
2017-12-15T18:33:11.684Z,6.90
2017-12-15T18:35:39.009Z,4.20
2017-12-15T18:38:06.206Z,5.23
2017-12-15T18:40:33.456Z,3.53
2017-12-15T18:43:00.729Z,4.80
2017-12-15T18:45:27.977Z,4.97
2017-12-15T18:47:55.238Z,3.57
2017-12-15T18:50:22.493Z,4.03
2017-12-15T18:52:49.756Z,5.77
2017-12-15T18:55:17.006Z,5.90
2017-12-15T18:57:44.271Z,6.23
2017-12-15T19:00:11.520Z,3.83
2017-12-15T19:02:38.781Z,4.57
2017-12-15T19:05:06.025Z,5.37
2017-12-15T19:07:33.297Z,6.67
2017-12-15T19:10:00.693Z,6.73
2017-12-15T19:12:28.008Z,10.87
2017-12-15T19:14:55.265Z,8.33
2017-12-15T19:17:22.511Z,6.20
2017-12-15T19:19:49.781Z,11.93
2017-12-15T19:22:17.032Z,11.53
2017-12-15T19:24:44.313Z,13.93
2017-12-15T19:27:11.585Z,16.60
2017-12-15T19:29:38.845Z,10.30
2017-12-15T19:32:06.101Z,11.07
2017-12-15T19:34:33.383Z,15.23
2017-12-15T19:37:00.645Z,17.73
2017-12-15T19:39:27.933Z,18.20
2017-12-15T19:41:55.196Z,25.63
2017-12-15T19:44:22.469Z,13.70
2017-12-15T19:46:49.725Z,14.53
2017-12-15T19:49:17.017Z,18.53
2017-12-15T19:51:44.269Z,13.57
2017-12-15T19:54:11.516Z,9.90
2017-12-15T19:56:38.790Z,11.27
2017-12-15T19:59:06.045Z,12.00
2017-12-15T20:01:33.313Z,9.30
2017-12-15T20:04:00.573Z,9.47
2017-12-15T20:06:27.840Z,17.03
2017-12-15T20:08:55.101Z,17.03
2017-12-15T20:11:22.377Z,7.13
2017-12-15T20:13:49.624Z,6.90
2017-12-15T20:16:16.886Z,9.40
2017-12-15T20:18:44.143Z,8.17
2017-12-15T20:21:11.414Z,10.57
2017-12-15T20:23:38.668Z,8.60
2017-12-15T20:26:05.953Z,7.97
2017-12-15T20:28:33.201Z,10.90
2017-12-15T20:31:00.468Z,7.50
2017-12-15T20:33:27.721Z,9.13
2017-12-15T20:35:54.995Z,11.07
2017-12-15T20:38:22.257Z,17.97
2017-12-15T20:40:49.521Z,8.80
2017-12-15T20:43:16.809Z,9.23
2017-12-15T20:45:44.100Z,13.00
2017-12-15T20:48:11.367Z,9.80
2017-12-15T20:50:38.693Z,12.97
2017-12-15T20:53:05.960Z,18.00
2017-12-15T20:55:33.220Z,12.00
2017-12-15T20:58:00.493Z,18.10
2017-12-15T21:00:27.813Z,9.57
2017-12-15T21:02:55.174Z,9.93
2017-12-15T21:05:22.435Z,18.10
2017-12-15T21:07:49.708Z,14.83
2017-12-15T21:10:16.990Z,10.17
2017-12-15T21:12:44.246Z,35.97
2017-12-15T21:15:11.520Z,21.87
2017-12-15T21:17:38.780Z,17.37
2017-12-15T21:20:06.048Z,15.70
2017-12-15T21:22:33.296Z,7.20
2017-12-15T21:25:00.622Z,9.83
2017-12-15T21:27:27.879Z,11.07
2017-12-15T21:29:55.156Z,17.20
2017-12-15T21:32:22.408Z,8.30
2017-12-15T21:34:49.682Z,9.17
2017-12-15T21:37:16.928Z,11.33
2017-12-15T21:39:44.202Z,8.20
2017-12-15T21:42:11.530Z,23.93
2017-12-15T21:44:38.796Z,14.60
2017-12-15T21:47:06.044Z,9.00
2017-12-15T21:49:33.404Z,9.20
2017-12-15T21:52:00.643Z,7.77
2017-12-15T21:54:27.918Z,9.33
2017-12-15T21:56:55.172Z,13.57
2017-12-15T21:59:22.508Z,8.03
2017-12-15T22:01:49.761Z,6.77
2017-12-15T22:04:17.009Z,9.93
2017-12-15T22:06:44.276Z,12.37
2017-12-15T22:09:11.536Z,20.83
2017-12-15T22:11:38.819Z,13.40
2017-12-15T22:14:06.065Z,12.30
2017-12-15T22:16:33.337Z,11.63
2017-12-15T22:19:00.584Z,8.67
2017-12-15T22:21:27.859Z,7.93
2017-12-15T22:23:55.116Z,5.20
2017-12-15T22:26:22.405Z,8.17
2017-12-15T22:28:49.755Z,8.97
2017-12-15T22:31:17.076Z,6.77
2017-12-15T22:33:44.264Z,6.50
2017-12-15T22:36:11.533Z,5.60
2017-12-15T22:38:38.824Z,5.93
2017-12-15T22:41:06.141Z,6.10
2017-12-15T22:43:33.405Z,8.20
2017-12-15T22:46:00.661Z,6.93
2017-12-15T22:48:27.931Z,5.60
2017-12-15T22:50:55.181Z,7.07
2017-12-15T22:53:22.481Z,6.93
2017-12-15T22:55:49.745Z,13.53
2017-12-15T22:58:17.017Z,4.00
2017-12-15T23:00:44.266Z,9.17
2017-12-15T23:03:11.601Z,6.93
2017-12-15T23:05:38.862Z,5.00
2017-12-15T23:08:06.130Z,6.70
2017-12-15T23:10:33.385Z,4.93
2017-12-15T23:13:00.650Z,4.03
2017-12-15T23:15:27.899Z,4.90
2017-12-15T23:17:55.250Z,5.40
2017-12-15T23:20:22.503Z,4.70
2017-12-15T23:22:49.812Z,7.60
2017-12-15T23:25:17.065Z,8.67
2017-12-15T23:27:44.309Z,8.20
2017-12-15T23:30:11.637Z,5.43
2017-12-15T23:32:39.060Z,3.80
2017-12-15T23:35:06.324Z,4.70
2017-12-15T23:37:33.674Z,5.40
2017-12-15T23:40:00.927Z,5.07
2017-12-15T23:42:28.177Z,3.30
2017-12-15T23:44:55.450Z,5.33
2017-12-15T23:47:22.705Z,10.60
2017-12-15T23:49:49.974Z,9.10
2017-12-15T23:52:17.284Z,6.73
2017-12-15T23:54:50.490Z,6.60
2017-12-15T23:57:17.735Z,5.20
2017-12-15T23:59:45.001Z,5.43
